sensor_id;sensor_type;location;lat;lon;timestamp;P1;durP1;ratioP1;P2;durP2;ratioP2
63312;SDS011;49442;45.640;13.812;2022-08-19T00:01:44;9.57;;;3.40;;
63312;SDS011;49442;45.640;13.812;2022-08-19T00:04:11;14.27;;;4.03;;
63312;SDS011;49442;45.640;13.812;2022-08-19T00:06:39;10.40;;;3.70;;
63312;SDS011;49442;45.640;13.812;2022-08-19T00:09:08;14.00;;;3.90;;
63312;SDS011;49442;45.640;13.812;2022-08-19T00:11:35;14.43;;;4.30;;
63312;SDS011;49442;45.640;13.812;2022-08-19T00:14:02;18.23;;;4.43;;
63312;SDS011;49442;45.640;13.812;2022-08-19T00:16:31;15.90;;;4.30;;
63312;SDS011;49442;45.640;13.812;2022-08-19T00:18:57;15.45;;;4.03;;
63312;SDS011;49442;45.640;13.812;2022-08-19T00:21:23;13.93;;;3.80;;
63312;SDS011;49442;45.640;13.812;2022-08-19T00:23:51;10.73;;;3.30;;
63312;SDS011;49442;45.640;13.812;2022-08-19T00:26:18;10.05;;;3.58;;
63312;SDS011;49442;45.640;13.812;2022-08-19T00:28:44;14.30;;;4.38;;
63312;SDS011;49442;45.640;13.812;2022-08-19T00:31:12;13.15;;;3.28;;
63312;SDS011;49442;45.640;13.812;2022-08-19T00:33:38;14.00;;;3.75;;
63312;SDS011;49442;45.640;13.812;2022-08-19T00:36:04;15.73;;;3.55;;
63312;SDS011;49442;45.640;13.812;2022-08-19T00:38:32;11.65;;;3.03;;
63312;SDS011;49442;45.640;13.812;2022-08-19T00:40:59;13.98;;;3.10;;
63312;SDS011;49442;45.640;13.812;2022-08-19T00:43:26;8.50;;;2.95;;
63312;SDS011;49442;45.640;13.812;2022-08-19T00:45:53;12.50;;;2.90;;
63312;SDS011;49442;45.640;13.812;2022-08-19T00:48:18;18.08;;;2.90;;
63312;SDS011;49442;45.640;13.812;2022-08-19T00:50:45;9.10;;;2.88;;
63312;SDS011;49442;45.640;13.812;2022-08-19T00:53:14;14.00;;;3.28;;
63312;SDS011;49442;45.640;13.812;2022-08-19T00:55:47;11.00;;;2.97;;
63312;SDS011;49442;45.640;13.812;2022-08-19T00:58:16;10.95;;;3.13;;
63312;SDS011;49442;45.640;13.812;2022-08-19T01:00:45;10.10;;;2.83;;
63312;SDS011;49442;45.640;13.812;2022-08-19T01:03:12;11.30;;;3.58;;
63312;SDS011;49442;45.640;13.812;2022-08-19T01:05:42;14.55;;;3.15;;
63312;SDS011;49442;45.640;13.812;2022-08-19T01:08:10;13.05;;;3.42;;
63312;SDS011;49442;45.640;13.812;2022-08-19T01:10:53;14.27;;;3.50;;
63312;SDS011;49442;45.640;13.812;2022-08-19T01:13:23;22.65;;;4.65;;
63312;SDS011;49442;45.640;13.812;2022-08-19T01:15:52;17.77;;;3.90;;
63312;SDS011;49442;45.640;13.812;2022-08-19T01:18:21;15.68;;;3.47;;
63312;SDS011;49442;45.640;13.812;2022-08-19T01:20:48;17.48;;;4.22;;
63312;SDS011;49442;45.640;13.812;2022-08-19T01:23:15;21.73;;;4.10;;
63312;SDS011;49442;45.640;13.812;2022-08-19T01:25:46;21.50;;;4.40;;
63312;SDS011;49442;45.640;13.812;2022-08-19T01:28:25;27.48;;;6.30;;
63312;SDS011;49442;45.640;13.812;2022-08-19T01:30:53;38.60;;;7.97;;
63312;SDS011;49442;45.640;13.812;2022-08-19T01:33:19;35.53;;;7.47;;
63312;SDS011;49442;45.640;13.812;2022-08-19T01:35:46;29.38;;;6.68;;
63312;SDS011;49442;45.640;13.812;2022-08-19T01:38:25;28.35;;;9.18;;
63312;SDS011;49442;45.640;13.812;2022-08-19T01:40:56;21.20;;;7.95;;
63312;SDS011;49442;45.640;13.812;2022-08-19T01:43:23;22.15;;;8.25;;
63312;SDS011;49442;45.640;13.812;2022-08-19T01:45:48;17.38;;;7.38;;
63312;SDS011;49442;45.640;13.812;2022-08-19T01:48:16;13.65;;;5.40;;
63312;SDS011;49442;45.640;13.812;2022-08-19T01:50:41;11.20;;;4.95;;
63312;SDS011;49442;45.640;13.812;2022-08-19T01:53:09;17.17;;;6.10;;
63312;SDS011;49442;45.640;13.812;2022-08-19T01:55:37;17.65;;;5.80;;
63312;SDS011;49442;45.640;13.812;2022-08-19T01:58:04;16.77;;;6.97;;
63312;SDS011;49442;45.640;13.812;2022-08-19T02:00:32;16.20;;;6.00;;
63312;SDS011;49442;45.640;13.812;2022-08-19T02:02:58;12.25;;;5.18;;
63312;SDS011;49442;45.640;13.812;2022-08-19T02:05:25;10.88;;;4.28;;
63312;SDS011;49442;45.640;13.812;2022-08-19T02:07:54;11.10;;;4.05;;
63312;SDS011;49442;45.640;13.812;2022-08-19T02:10:21;14.50;;;3.85;;
63312;SDS011;49442;45.640;13.812;2022-08-19T02:12:47;10.15;;;3.50;;
63312;SDS011;49442;45.640;13.812;2022-08-19T02:15:14;11.35;;;3.53;;
63312;SDS011;49442;45.640;13.812;2022-08-19T02:17:41;12.65;;;4.70;;
63312;SDS011;49442;45.640;13.812;2022-08-19T02:20:08;30.30;;;8.70;;
63312;SDS011;49442;45.640;13.812;2022-08-19T02:22:34;22.45;;;8.63;;
63312;SDS011;49442;45.640;13.812;2022-08-19T02:25:00;26.85;;;8.90;;
63312;SDS011;49442;45.640;13.812;2022-08-19T02:27:27;24.63;;;6.15;;
63312;SDS011;49442;45.640;13.812;2022-08-19T02:29:52;14.63;;;3.78;;
63312;SDS011;49442;45.640;13.812;2022-08-19T02:32:19;13.18;;;4.47;;
63312;SDS011;49442;45.640;13.812;2022-08-19T02:34:45;19.90;;;5.57;;
63312;SDS011;49442;45.640;13.812;2022-08-19T02:37:12;19.25;;;5.03;;
63312;SDS011;49442;45.640;13.812;2022-08-19T02:39:56;21.50;;;3.88;;
63312;SDS011;49442;45.640;13.812;2022-08-19T02:42:22;22.73;;;4.15;;
63312;SDS011;49442;45.640;13.812;2022-08-19T02:44:48;12.95;;;4.10;;
63312;SDS011;49442;45.640;13.812;2022-08-19T02:47:14;12.27;;;4.32;;
63312;SDS011;49442;45.640;13.812;2022-08-19T02:49:40;15.30;;;4.55;;
63312;SDS011;49442;45.640;13.812;2022-08-19T02:52:07;20.10;;;4.20;;
63312;SDS011;49442;45.640;13.812;2022-08-19T02:54:33;15.50;;;5.30;;
63312;SDS011;49442;45.640;13.812;2022-08-19T02:56:59;15.57;;;4.05;;
63312;SDS011;49442;45.640;13.812;2022-08-19T02:59:25;15.85;;;3.90;;
63312;SDS011;49442;45.640;13.812;2022-08-19T03:01:51;12.95;;;4.40;;
63312;SDS011;49442;45.640;13.812;2022-08-19T03:04:17;15.82;;;4.40;;
63312;SDS011;49442;45.640;13.812;2022-08-19T03:06:45;19.33;;;4.80;;
63312;SDS011;49442;45.640;13.812;2022-08-19T03:09:11;16.42;;;4.70;;
63312;SDS011;49442;45.640;13.812;2022-08-19T03:11:38;15.05;;;3.95;;
63312;SDS011;49442;45.640;13.812;2022-08-19T03:14:04;10.10;;;4.22;;
63312;SDS011;49442;45.640;13.812;2022-08-19T03:16:33;13.40;;;4.32;;
63312;SDS011;49442;45.640;13.812;2022-08-19T03:19:00;9.82;;;3.92;;
63312;SDS011;49442;45.640;13.812;2022-08-19T03:21:29;14.10;;;4.03;;
63312;SDS011;49442;45.640;13.812;2022-08-19T03:23:57;13.30;;;3.97;;
63312;SDS011;49442;45.640;13.812;2022-08-19T03:26:24;7.82;;;3.33;;
63312;SDS011;49442;45.640;13.812;2022-08-19T03:28:50;10.65;;;3.42;;
63312;SDS011;49442;45.640;13.812;2022-08-19T03:31:20;10.07;;;3.10;;
63312;SDS011;49442;45.640;13.812;2022-08-19T03:33:50;9.57;;;3.38;;
63312;SDS011;49442;45.640;13.812;2022-08-19T03:36:18;10.82;;;3.67;;
63312;SDS011;49442;45.640;13.812;2022-08-19T03:38:50;19.52;;;4.68;;
63312;SDS011;49442;45.640;13.812;2022-08-19T03:41:24;12.27;;;3.40;;
63312;SDS011;49442;45.640;13.812;2022-08-19T03:43:52;16.35;;;3.47;;
63312;SDS011;49442;45.640;13.812;2022-08-19T03:46:20;11.05;;;3.40;;
63312;SDS011;49442;45.640;13.812;2022-08-19T03:48:51;8.63;;;3.47;;
63312;SDS011;49442;45.640;13.812;2022-08-19T03:53:53;10.65;;;3.53;;
63312;SDS011;49442;45.640;13.812;2022-08-19T03:56:20;7.72;;;2.65;;
63312;SDS011;49442;45.640;13.812;2022-08-19T03:58:46;16.33;;;3.53;;
63312;SDS011;49442;45.640;13.812;2022-08-19T04:01:13;15.15;;;3.50;;
63312;SDS011;49442;45.640;13.812;2022-08-19T04:03:43;15.90;;;3.37;;
63312;SDS011;49442;45.640;13.812;2022-08-19T04:08:42;18.60;;;4.63;;
63312;SDS011;49442;45.640;13.812;2022-08-19T04:11:10;23.67;;;4.18;;
63312;SDS011;49442;45.640;13.812;2022-08-19T04:13:37;21.67;;;4.80;;
63312;SDS011;49442;45.640;13.812;2022-08-19T04:16:03;19.30;;;4.80;;
63312;SDS011;49442;45.640;13.812;2022-08-19T04:18:30;13.73;;;3.85;;
63312;SDS011;49442;45.640;13.812;2022-08-19T04:20:58;9.15;;;3.83;;
63312;SDS011;49442;45.640;13.812;2022-08-19T04:23:24;14.50;;;3.78;;
63312;SDS011;49442;45.640;13.812;2022-08-19T04:25:53;8.85;;;3.50;;
63312;SDS011;49442;45.640;13.812;2022-08-19T04:28:20;12.43;;;3.75;;
63312;SDS011;49442;45.640;13.812;2022-08-19T04:30:47;14.85;;;4.18;;
63312;SDS011;49442;45.640;13.812;2022-08-19T04:33:15;5.95;;;3.05;;
63312;SDS011;49442;45.640;13.812;2022-08-19T04:35:44;12.05;;;3.60;;
63312;SDS011;49442;45.640;13.812;2022-08-19T04:38:12;10.75;;;3.15;;
63312;SDS011;49442;45.640;13.812;2022-08-19T04:40:43;10.85;;;2.75;;
63312;SDS011;49442;45.640;13.812;2022-08-19T04:43:29;6.47;;;1.73;;
63312;SDS011;49442;45.640;13.812;2022-08-19T04:45:55;12.45;;;2.00;;
63312;SDS011;49442;45.640;13.812;2022-08-19T04:48:21;3.05;;;1.52;;
63312;SDS011;49442;45.640;13.812;2022-08-19T04:50:55;8.75;;;2.10;;
63312;SDS011;49442;45.640;13.812;2022-08-19T04:55:55;6.28;;;1.85;;
63312;SDS011;49442;45.640;13.812;2022-08-19T04:58:22;8.13;;;2.38;;
63312;SDS011;49442;45.640;13.812;2022-08-19T05:00:52;7.53;;;2.13;;
63312;SDS011;49442;45.640;13.812;2022-08-19T05:03:19;9.75;;;2.55;;
63312;SDS011;49442;45.640;13.812;2022-08-19T05:05:46;8.85;;;1.88;;
63312;SDS011;49442;45.640;13.812;2022-08-19T05:08:17;5.22;;;2.00;;
63312;SDS011;49442;45.640;13.812;2022-08-19T05:10:46;4.18;;;1.75;;
63312;SDS011;49442;45.640;13.812;2022-08-19T05:13:13;4.80;;;1.48;;
63312;SDS011;49442;45.640;13.812;2022-08-19T05:15:40;4.07;;;1.27;;
63312;SDS011;49442;45.640;13.812;2022-08-19T05:18:06;8.13;;;1.50;;
63312;SDS011;49442;45.640;13.812;2022-08-19T05:20:50;7.53;;;1.48;;
63312;SDS011;49442;45.640;13.812;2022-08-19T05:23:34;3.55;;;1.50;;
63312;SDS011;49442;45.640;13.812;2022-08-19T05:26:00;3.53;;;1.30;;
63312;SDS011;49442;45.640;13.812;2022-08-19T05:28:26;11.50;;;1.55;;
63312;SDS011;49442;45.640;13.812;2022-08-19T05:30:52;3.33;;;1.23;;
63312;SDS011;49442;45.640;13.812;2022-08-19T05:33:20;3.05;;;1.30;;
63312;SDS011;49442;45.640;13.812;2022-08-19T05:35:47;10.98;;;1.80;;
63312;SDS011;49442;45.640;13.812;2022-08-19T05:38:14;6.28;;;1.02;;
63312;SDS011;49442;45.640;13.812;2022-08-19T05:40:40;3.92;;;1.25;;
63312;SDS011;49442;45.640;13.812;2022-08-19T05:43:07;7.60;;;1.42;;
63312;SDS011;49442;45.640;13.812;2022-08-19T05:45:37;2.97;;;1.15;;
63312;SDS011;49442;45.640;13.812;2022-08-19T05:48:04;4.85;;;1.42;;
63312;SDS011;49442;45.640;13.812;2022-08-19T05:50:30;2.58;;;1.00;;
63312;SDS011;49442;45.640;13.812;2022-08-19T05:52:56;2.72;;;1.00;;
63312;SDS011;49442;45.640;13.812;2022-08-19T05:55:21;4.53;;;1.25;;
63312;SDS011;49442;45.640;13.812;2022-08-19T05:57:48;5.47;;;1.00;;
63312;SDS011;49442;45.640;13.812;2022-08-19T06:00:14;7.28;;;1.00;;
63312;SDS011;49442;45.640;13.812;2022-08-19T06:02:40;4.70;;;1.40;;
63312;SDS011;49442;45.640;13.812;2022-08-19T06:05:06;4.43;;;1.17;;
63312;SDS011;49442;45.640;13.812;2022-08-19T06:07:38;3.10;;;0.93;;
63312;SDS011;49442;45.640;13.812;2022-08-19T06:10:06;4.72;;;1.55;;
63312;SDS011;49442;45.640;13.812;2022-08-19T06:12:33;4.32;;;1.40;;
63312;SDS011;49442;45.640;13.812;2022-08-19T06:15:02;3.42;;;1.17;;
63312;SDS011;49442;45.640;13.812;2022-08-19T06:17:30;3.25;;;1.20;;
63312;SDS011;49442;45.640;13.812;2022-08-19T06:19:56;4.38;;;1.70;;
63312;SDS011;49442;45.640;13.812;2022-08-19T06:22:23;4.43;;;1.38;;
63312;SDS011;49442;45.640;13.812;2022-08-19T06:24:49;5.75;;;1.45;;
63312;SDS011;49442;45.640;13.812;2022-08-19T06:27:17;6.28;;;1.77;;
63312;SDS011;49442;45.640;13.812;2022-08-19T06:29:43;7.13;;;1.55;;
63312;SDS011;49442;45.640;13.812;2022-08-19T06:32:13;5.40;;;1.55;;
63312;SDS011;49442;45.640;13.812;2022-08-19T06:34:41;4.05;;;1.73;;
63312;SDS011;49442;45.640;13.812;2022-08-19T06:37:07;6.45;;;2.03;;
63312;SDS011;49442;45.640;13.812;2022-08-19T06:39:38;3.78;;;1.60;;
63312;SDS011;49442;45.640;13.812;2022-08-19T06:42:06;7.88;;;1.70;;
63312;SDS011;49442;45.640;13.812;2022-08-19T06:44:36;8.57;;;1.83;;
63312;SDS011;49442;45.640;13.812;2022-08-19T06:47:04;8.82;;;1.80;;
63312;SDS011;49442;45.640;13.812;2022-08-19T06:49:31;6.07;;;2.03;;
63312;SDS011;49442;45.640;13.812;2022-08-19T06:51:58;4.57;;;1.77;;
63312;SDS011;49442;45.640;13.812;2022-08-19T06:54:24;11.93;;;1.92;;
63312;SDS011;49442;45.640;13.812;2022-08-19T06:56:51;9.55;;;2.08;;
63312;SDS011;49442;45.640;13.812;2022-08-19T06:59:19;6.40;;;1.80;;
63312;SDS011;49442;45.640;13.812;2022-08-19T07:01:51;5.20;;;1.80;;
63312;SDS011;49442;45.640;13.812;2022-08-19T07:04:22;7.03;;;1.57;;
63312;SDS011;49442;45.640;13.812;2022-08-19T07:06:50;6.50;;;1.67;;
63312;SDS011;49442;45.640;13.812;2022-08-19T07:09:21;5.05;;;1.35;;
63312;SDS011;49442;45.640;13.812;2022-08-19T07:11:47;9.30;;;1.73;;
63312;SDS011;49442;45.640;13.812;2022-08-19T07:14:16;5.45;;;1.55;;
63312;SDS011;49442;45.640;13.812;2022-08-19T07:16:44;4.95;;;1.40;;
63312;SDS011;49442;45.640;13.812;2022-08-19T07:19:10;2.28;;;1.15;;
63312;SDS011;49442;45.640;13.812;2022-08-19T07:21:37;5.45;;;1.17;;
63312;SDS011;49442;45.640;13.812;2022-08-19T07:24:03;7.65;;;1.50;;
63312;SDS011;49442;45.640;13.812;2022-08-19T07:26:31;2.10;;;1.00;;
63312;SDS011;49442;45.640;13.812;2022-08-19T07:28:58;11.68;;;1.50;;
63312;SDS011;49442;45.640;13.812;2022-08-19T07:31:26;5.72;;;1.20;;
63312;SDS011;49442;45.640;13.812;2022-08-19T07:33:53;7.13;;;1.73;;
63312;SDS011;49442;45.640;13.812;2022-08-19T07:36:25;3.97;;;1.20;;
63312;SDS011;49442;45.640;13.812;2022-08-19T07:38:57;4.55;;;1.52;;
63312;SDS011;49442;45.640;13.812;2022-08-19T07:41:26;8.90;;;1.95;;
63312;SDS011;49442;45.640;13.812;2022-08-19T07:43:56;8.00;;;1.80;;
63312;SDS011;49442;45.640;13.812;2022-08-19T07:46:23;11.68;;;2.53;;
63312;SDS011;49442;45.640;13.812;2022-08-19T07:48:49;13.65;;;2.40;;
63312;SDS011;49442;45.640;13.812;2022-08-19T07:51:17;13.05;;;2.38;;
63312;SDS011;49442;45.640;13.812;2022-08-19T07:53:45;17.95;;;2.80;;
63312;SDS011;49442;45.640;13.812;2022-08-19T07:56:14;8.07;;;2.17;;
63312;SDS011;49442;45.640;13.812;2022-08-19T07:58:42;15.15;;;2.50;;
63312;SDS011;49442;45.640;13.812;2022-08-19T08:01:13;10.30;;;2.13;;
63312;SDS011;49442;45.640;13.812;2022-08-19T08:03:43;7.93;;;2.58;;
63312;SDS011;49442;45.640;13.812;2022-08-19T08:06:27;12.68;;;3.08;;
63312;SDS011;49442;45.640;13.812;2022-08-19T08:09:12;17.50;;;3.03;;
63312;SDS011;49442;45.640;13.812;2022-08-19T08:11:48;8.32;;;2.70;;
63312;SDS011;49442;45.640;13.812;2022-08-19T08:14:24;13.85;;;3.40;;
63312;SDS011;49442;45.640;13.812;2022-08-19T08:16:55;12.77;;;2.92;;
63312;SDS011;49442;45.640;13.812;2022-08-19T08:19:23;14.82;;;3.33;;
63312;SDS011;49442;45.640;13.812;2022-08-19T08:21:51;16.35;;;3.13;;
63312;SDS011;49442;45.640;13.812;2022-08-19T08:24:18;13.90;;;2.72;;
63312;SDS011;49442;45.640;13.812;2022-08-19T08:26:45;15.77;;;2.88;;
63312;SDS011;49442;45.640;13.812;2022-08-19T08:29:11;17.00;;;3.42;;
63312;SDS011;49442;45.640;13.812;2022-08-19T08:31:38;20.80;;;2.72;;
63312;SDS011;49442;45.640;13.812;2022-08-19T08:34:05;14.53;;;2.73;;
63312;SDS011;49442;45.640;13.812;2022-08-19T08:36:31;16.38;;;3.40;;
63312;SDS011;49442;45.640;13.812;2022-08-19T08:39:00;11.23;;;2.63;;
63312;SDS011;49442;45.640;13.812;2022-08-19T08:44:15;12.65;;;3.55;;
63312;SDS011;49442;45.640;13.812;2022-08-19T08:46:46;19.48;;;3.45;;
63312;SDS011;49442;45.640;13.812;2022-08-19T08:49:40;13.25;;;3.67;;
63312;SDS011;49442;45.640;13.812;2022-08-19T08:55:00;12.55;;;2.40;;
63312;SDS011;49442;45.640;13.812;2022-08-19T08:57:35;12.35;;;2.85;;
63312;SDS011;49442;45.640;13.812;2022-08-19T09:00:10;8.93;;;2.80;;
63312;SDS011;49442;45.640;13.812;2022-08-19T09:02:41;19.20;;;2.70;;
63312;SDS011;49442;45.640;13.812;2022-08-19T09:05:08;15.82;;;3.28;;
63312;SDS011;49442;45.640;13.812;2022-08-19T09:16:39;24.45;;;4.18;;
63312;SDS011;49442;45.640;13.812;2022-08-19T09:19:03;22.10;;;3.95;;
63312;SDS011;49442;45.640;13.812;2022-08-19T09:21:30;24.42;;;4.22;;
63312;SDS011;49442;45.640;13.812;2022-08-19T09:23:57;24.48;;;4.95;;
63312;SDS011;49442;45.640;13.812;2022-08-19T09:26:23;26.98;;;4.82;;
63312;SDS011;49442;45.640;13.812;2022-08-19T09:28:51;24.00;;;5.53;;
63312;SDS011;49442;45.640;13.812;2022-08-19T09:31:22;24.75;;;5.35;;
63312;SDS011;49442;45.640;13.812;2022-08-19T09:33:50;23.23;;;5.10;;
63312;SDS011;49442;45.640;13.812;2022-08-19T09:36:18;28.85;;;5.28;;
63312;SDS011;49442;45.640;13.812;2022-08-19T09:38:47;18.45;;;4.55;;
63312;SDS011;49442;45.640;13.812;2022-08-19T09:41:17;27.85;;;6.05;;
63312;SDS011;49442;45.640;13.812;2022-08-19T09:43:45;28.80;;;5.70;;
63312;SDS011;49442;45.640;13.812;2022-08-19T09:46:12;31.42;;;5.35;;
63312;SDS011;49442;45.640;13.812;2022-08-19T09:48:39;22.80;;;5.65;;
63312;SDS011;49442;45.640;13.812;2022-08-19T09:51:07;33.03;;;5.07;;
63312;SDS011;49442;45.640;13.812;2022-08-19T09:53:35;31.45;;;5.30;;
63312;SDS011;49442;45.640;13.812;2022-08-19T09:56:03;38.22;;;6.40;;
63312;SDS011;49442;45.640;13.812;2022-08-19T09:58:30;38.90;;;6.15;;
63312;SDS011;49442;45.640;13.812;2022-08-19T10:00:57;42.58;;;7.03;;
63312;SDS011;49442;45.640;13.812;2022-08-19T10:03:24;37.97;;;6.72;;
63312;SDS011;49442;45.640;13.812;2022-08-19T10:05:51;31.42;;;5.93;;
63312;SDS011;49442;45.640;13.812;2022-08-19T10:08:19;30.13;;;6.32;;
63312;SDS011;49442;45.640;13.812;2022-08-19T10:10:58;34.40;;;6.13;;
63312;SDS011;49442;45.640;13.812;2022-08-19T10:13:25;37.10;;;6.43;;
63312;SDS011;49442;45.640;13.812;2022-08-19T10:15:53;26.80;;;5.85;;
63312;SDS011;49442;45.640;13.812;2022-08-19T10:18:21;36.15;;;6.80;;
63312;SDS011;49442;45.640;13.812;2022-08-19T10:20:49;37.17;;;7.25;;
63312;SDS011;49442;45.640;13.812;2022-08-19T10:23:16;23.90;;;5.32;;
63312;SDS011;49442;45.640;13.812;2022-08-19T10:25:42;28.10;;;5.55;;
63312;SDS011;49442;45.640;13.812;2022-08-19T10:28:08;35.80;;;7.75;;
63312;SDS011;49442;45.640;13.812;2022-08-19T10:30:37;37.75;;;7.65;;
63312;SDS011;49442;45.640;13.812;2022-08-19T10:33:05;31.85;;;6.38;;
63312;SDS011;49442;45.640;13.812;2022-08-19T10:35:31;39.85;;;7.60;;
63312;SDS011;49442;45.640;13.812;2022-08-19T10:37:57;36.55;;;7.78;;
63312;SDS011;49442;45.640;13.812;2022-08-19T10:40:24;41.42;;;7.97;;
63312;SDS011;49442;45.640;13.812;2022-08-19T10:42:52;41.25;;;9.80;;
63312;SDS011;49442;45.640;13.812;2022-08-19T10:45:18;39.72;;;10.70;;
63312;SDS011;49442;45.640;13.812;2022-08-19T10:47:47;44.92;;;8.93;;
63312;SDS011;49442;45.640;13.812;2022-08-19T10:50:12;34.75;;;7.13;;
63312;SDS011;49442;45.640;13.812;2022-08-19T10:52:57;20.48;;;5.47;;
63312;SDS011;49442;45.640;13.812;2022-08-19T10:55:23;30.27;;;6.32;;
63312;SDS011;49442;45.640;13.812;2022-08-19T10:58:11;20.75;;;5.30;;
63312;SDS011;49442;45.640;13.812;2022-08-19T11:00:39;16.77;;;5.45;;
63312;SDS011;49442;45.640;13.812;2022-08-19T11:03:05;11.65;;;4.25;;
63312;SDS011;49442;45.640;13.812;2022-08-19T11:05:31;10.38;;;5.00;;
63312;SDS011;49442;45.640;13.812;2022-08-19T11:07:57;23.85;;;4.53;;
63312;SDS011;49442;45.640;13.812;2022-08-19T11:10:22;18.90;;;5.25;;
63312;SDS011;49442;45.640;13.812;2022-08-19T11:12:48;20.05;;;4.57;;
63312;SDS011;49442;45.640;13.812;2022-08-19T11:15:17;15.32;;;4.15;;
63312;SDS011;49442;45.640;13.812;2022-08-19T11:17:43;18.40;;;4.25;;
63312;SDS011;49442;45.640;13.812;2022-08-19T11:20:12;13.45;;;3.58;;
63312;SDS011;49442;45.640;13.812;2022-08-19T11:22:39;14.63;;;4.50;;
63312;SDS011;49442;45.640;13.812;2022-08-19T11:25:07;15.63;;;4.13;;
63312;SDS011;49442;45.640;13.812;2022-08-19T11:27:33;17.08;;;4.45;;
63312;SDS011;49442;45.640;13.812;2022-08-19T11:30:04;14.13;;;3.60;;
63312;SDS011;49442;45.640;13.812;2022-08-19T11:32:32;14.85;;;5.63;;
63312;SDS011;49442;45.640;13.812;2022-08-19T11:34:58;21.35;;;4.38;;
63312;SDS011;49442;45.640;13.812;2022-08-19T11:37:24;20.77;;;4.40;;
63312;SDS011;49442;45.640;13.812;2022-08-19T11:39:50;11.52;;;3.50;;
63312;SDS011;49442;45.640;13.812;2022-08-19T11:42:15;8.25;;;3.25;;
63312;SDS011;49442;45.640;13.812;2022-08-19T11:45:01;17.65;;;3.75;;
63312;SDS011;49442;45.640;13.812;2022-08-19T11:47:29;19.33;;;5.07;;
63312;SDS011;49442;45.640;13.812;2022-08-19T11:49:55;14.30;;;4.55;;
63312;SDS011;49442;45.640;13.812;2022-08-19T11:52:21;15.27;;;4.35;;
63312;SDS011;49442;45.640;13.812;2022-08-19T11:54:47;15.93;;;4.90;;
63312;SDS011;49442;45.640;13.812;2022-08-19T11:57:13;18.05;;;4.38;;
63312;SDS011;49442;45.640;13.812;2022-08-19T11:59:41;12.85;;;4.18;;
63312;SDS011;49442;45.640;13.812;2022-08-19T12:02:12;28.57;;;4.80;;
63312;SDS011;49442;45.640;13.812;2022-08-19T12:04:38;9.88;;;3.80;;
63312;SDS011;49442;45.640;13.812;2022-08-19T12:07:04;16.95;;;4.05;;
63312;SDS011;49442;45.640;13.812;2022-08-19T12:09:30;16.02;;;4.30;;
63312;SDS011;49442;45.640;13.812;2022-08-19T12:11:56;11.63;;;3.53;;
63312;SDS011;49442;45.640;13.812;2022-08-19T12:14:22;17.92;;;4.30;;
63312;SDS011;49442;45.640;13.812;2022-08-19T12:16:48;13.45;;;3.65;;
63312;SDS011;49442;45.640;13.812;2022-08-19T12:19:14;16.50;;;3.85;;
63312;SDS011;49442;45.640;13.812;2022-08-19T12:21:40;15.02;;;3.58;;
63312;SDS011;49442;45.640;13.812;2022-08-19T12:24:06;12.45;;;4.25;;
63312;SDS011;49442;45.640;13.812;2022-08-19T12:26:32;13.75;;;3.60;;
63312;SDS011;49442;45.640;13.812;2022-08-19T12:28:59;13.65;;;3.55;;
63312;SDS011;49442;45.640;13.812;2022-08-19T12:31:26;15.60;;;4.38;;
63312;SDS011;49442;45.640;13.812;2022-08-19T12:33:53;11.57;;;3.38;;
63312;SDS011;49442;45.640;13.812;2022-08-19T12:36:19;11.95;;;3.20;;
63312;SDS011;49442;45.640;13.812;2022-08-19T12:38:46;10.70;;;3.58;;
63312;SDS011;49442;45.640;13.812;2022-08-19T12:41:13;11.02;;;3.75;;
63312;SDS011;49442;45.640;13.812;2022-08-19T12:43:42;13.55;;;3.13;;
63312;SDS011;49442;45.640;13.812;2022-08-19T12:46:08;6.60;;;2.65;;
63312;SDS011;49442;45.640;13.812;2022-08-19T12:48:35;15.75;;;3.58;;
63312;SDS011;49442;45.640;13.812;2022-08-19T12:51:08;13.10;;;3.45;;
63312;SDS011;49442;45.640;13.812;2022-08-19T12:53:35;13.77;;;3.50;;
63312;SDS011;49442;45.640;13.812;2022-08-19T12:56:01;15.88;;;3.28;;
63312;SDS011;49442;45.640;13.812;2022-08-19T12:58:27;13.70;;;3.35;;
63312;SDS011;49442;45.640;13.812;2022-08-19T13:00:54;10.85;;;2.95;;
63312;SDS011;49442;45.640;13.812;2022-08-19T13:03:20;11.73;;;3.20;;
63312;SDS011;49442;45.640;13.812;2022-08-19T13:05:52;17.27;;;3.90;;
63312;SDS011;49442;45.640;13.812;2022-08-19T13:08:18;15.43;;;3.30;;
63312;SDS011;49442;45.640;13.812;2022-08-19T13:10:44;15.93;;;3.20;;
63312;SDS011;49442;45.640;13.812;2022-08-19T13:13:09;12.10;;;3.25;;
63312;SDS011;49442;45.640;13.812;2022-08-19T13:15:37;17.25;;;3.65;;
63312;SDS011;49442;45.640;13.812;2022-08-19T13:18:06;25.43;;;3.47;;
63312;SDS011;49442;45.640;13.812;2022-08-19T13:20:34;11.65;;;2.97;;
63312;SDS011;49442;45.640;13.812;2022-08-19T13:23:00;8.95;;;3.08;;
63312;SDS011;49442;45.640;13.812;2022-08-19T13:25:25;15.07;;;3.03;;
63312;SDS011;49442;45.640;13.812;2022-08-19T13:27:51;10.60;;;3.50;;
63312;SDS011;49442;45.640;13.812;2022-08-19T13:30:18;9.85;;;2.85;;
63312;SDS011;49442;45.640;13.812;2022-08-19T13:33:03;8.38;;;2.70;;
63312;SDS011;49442;45.640;13.812;2022-08-19T13:35:35;13.13;;;3.45;;
63312;SDS011;49442;45.640;13.812;2022-08-19T13:38:02;12.48;;;3.15;;
63312;SDS011;49442;45.640;13.812;2022-08-19T13:40:29;13.55;;;3.05;;
63312;SDS011;49442;45.640;13.812;2022-08-19T13:42:58;9.20;;;2.88;;
63312;SDS011;49442;45.640;13.812;2022-08-19T13:45:26;18.15;;;3.38;;
63312;SDS011;49442;45.640;13.812;2022-08-19T13:47:54;10.18;;;3.13;;
63312;SDS011;49442;45.640;13.812;2022-08-19T13:50:22;21.30;;;3.72;;
63312;SDS011;49442;45.640;13.812;2022-08-19T13:52:50;13.23;;;3.22;;
63312;SDS011;49442;45.640;13.812;2022-08-19T13:55:17;13.07;;;3.45;;
63312;SDS011;49442;45.640;13.812;2022-08-19T13:57:43;9.18;;;3.03;;
63312;SDS011;49442;45.640;13.812;2022-08-19T14:00:10;12.20;;;3.30;;
63312;SDS011;49442;45.640;13.812;2022-08-19T14:02:39;8.98;;;2.60;;
63312;SDS011;49442;45.640;13.812;2022-08-19T14:05:06;10.18;;;2.42;;
63312;SDS011;49442;45.640;13.812;2022-08-19T14:07:33;15.77;;;2.80;;
63312;SDS011;49442;45.640;13.812;2022-08-19T14:09:59;9.93;;;3.10;;
63312;SDS011;49442;45.640;13.812;2022-08-19T14:12:25;11.70;;;2.53;;
63312;SDS011;49442;45.640;13.812;2022-08-19T14:14:51;8.60;;;2.80;;
63312;SDS011;49442;45.640;13.812;2022-08-19T14:17:16;9.40;;;2.78;;
63312;SDS011;49442;45.640;13.812;2022-08-19T14:19:42;11.57;;;2.58;;
63312;SDS011;49442;45.640;13.812;2022-08-19T14:22:08;12.93;;;2.35;;
63312;SDS011;49442;45.640;13.812;2022-08-19T14:24:34;10.80;;;2.42;;
63312;SDS011;49442;45.640;13.812;2022-08-19T14:27:04;15.20;;;2.63;;
63312;SDS011;49442;45.640;13.812;2022-08-19T14:29:31;15.00;;;2.90;;
63312;SDS011;49442;45.640;13.812;2022-08-19T14:31:57;14.95;;;2.50;;
63312;SDS011;49442;45.640;13.812;2022-08-19T14:34:24;6.07;;;2.13;;
63312;SDS011;49442;45.640;13.812;2022-08-19T14:36:51;7.68;;;1.90;;
63312;SDS011;49442;45.640;13.812;2022-08-19T14:39:17;9.38;;;1.92;;
63312;SDS011;49442;45.640;13.812;2022-08-19T14:41:43;9.20;;;1.50;;
63312;SDS011;49442;45.640;13.812;2022-08-19T14:44:10;6.60;;;2.00;;
63312;SDS011;49442;45.640;13.812;2022-08-19T14:46:37;11.40;;;2.13;;
63312;SDS011;49442;45.640;13.812;2022-08-19T14:49:04;12.00;;;2.08;;
63312;SDS011;49442;45.640;13.812;2022-08-19T14:51:30;4.80;;;1.67;;
63312;SDS011;49442;45.640;13.812;2022-08-19T14:53:56;11.35;;;2.38;;